BWA8004 TTPP-TNCC
Flight info
| Callsign | BWA8004 |
|---|---|
| Flight time | 1h 48m |
| Altitude | 31000 |
| Route | ANADA DCT RAYAS DCT SCAPA SCAPA1B |
| Aircraft | B38M/M-SDE1FGHILORVWXY/HB1 |
Departure
| Time | 2026-05-07 22:41 |
|---|---|
| Airport | Piarco International Airport (TTPP) |
Arrival
| Time | 2026-05-08 00:29 |
|---|---|
| Airport | Hato International Airport (TNCC) |
| Time | Latitude | Longitude | Altitude | Speed | Heading |
|---|---|---|---|---|---|
| 2026-05-07 22:04 | 10.59896 | -61.33680 | 52 ft | 0 kts | 252° |
| 2026-05-07 22:34 | 10.59894 | -61.33687 | 52 ft | 5 kts | 252° |
| 2026-05-07 22:34 | 10.59863 | -61.33737 | 49 ft | 11 kts | 221° |
| 2026-05-07 22:35 | 10.59833 | -61.33826 | 52 ft | 18 kts | 268° |
| 2026-05-07 22:35 | 10.59837 | -61.33978 | 52 ft | 22 kts | 269° |
| 2026-05-07 22:35 | 10.59834 | -61.34108 | 52 ft | 17 kts | 270° |
| 2026-05-07 22:35 | 10.59776 | -61.34173 | 52 ft | 12 kts | 184° |
| 2026-05-07 22:36 | 10.59710 | -61.34219 | 52 ft | 13 kts | 256° |
| 2026-05-07 22:36 | 10.59706 | -61.34316 | 51 ft | 14 kts | 270° |
| 2026-05-07 22:36 | 10.59706 | -61.34410 | 52 ft | 11 kts | 270° |
| 2026-05-07 22:36 | 10.59703 | -61.34486 | 48 ft | 8 kts | 253° |
| 2026-05-07 22:37 | 10.59670 | -61.34524 | 52 ft | 4 kts | 194° |
| 2026-05-07 22:37 | 10.59657 | -61.34525 | 52 ft | 0 kts | 181° |
| 2026-05-07 22:37 | 10.59649 | -61.34525 | 52 ft | 2 kts | 181° |
| 2026-05-07 22:37 | 10.59610 | -61.34526 | 46 ft | 12 kts | 181° |
| 2026-05-07 22:38 | 10.59486 | -61.34528 | 52 ft | 20 kts | 179° |
| 2026-05-07 22:38 | 10.59416 | -61.34571 | 52 ft | 14 kts | 253° |
| 2026-05-07 22:38 | 10.59399 | -61.34697 | 50 ft | 21 kts | 254° |
| 2026-05-07 22:38 | 10.59352 | -61.34874 | 52 ft | 27 kts | 262° |
| 2026-05-07 22:39 | 10.59348 | -61.35057 | 52 ft | 24 kts | 270° |
| 2026-05-07 22:39 | 10.59374 | -61.35188 | 49 ft | 14 kts | 324° |
| 2026-05-07 22:39 | 10.59414 | -61.35194 | 49 ft | 0 kts | 0° |
| 2026-05-07 22:39 | 10.59445 | -61.35194 | 46 ft | 10 kts | 5° |
| 2026-05-07 22:40 | 10.59520 | -61.35151 | 52 ft | 10 kts | 45° |
| 2026-05-07 22:40 | 10.59532 | -61.35113 | 46 ft | 0 kts | 87° |
| 2026-05-07 22:40 | 10.59536 | -61.34938 | 52 ft | 65 kts | 90° |
| 2026-05-07 22:41 | 10.59535 | -61.34205 | 49 ft | 139 kts | 90° |
| 2026-05-07 22:41 | 10.59534 | -61.33071 | 371 ft | 168 kts | 91° |
| 2026-05-07 22:41 | 10.59531 | -61.31921 | 1296 ft | 166 kts | 88° |
| 2026-05-07 22:41 | 10.59557 | -61.30653 | 1825 ft | 194 kts | 86° |
| 2026-05-07 22:42 | 10.59605 | -61.29179 | 2511 ft | 218 kts | 86° |
| 2026-05-07 22:42 | 10.59686 | -61.27598 | 3526 ft | 229 kts | 86° |
| 2026-05-07 22:42 | 10.59751 | -61.26089 | 4386 ft | 206 kts | 87° |
| 2026-05-07 22:42 | 10.59818 | -61.24609 | 5138 ft | 217 kts | 86° |
| 2026-05-07 22:43 | 10.59906 | -61.23006 | 5721 ft | 237 kts | 86° |
| 2026-05-07 22:43 | 10.60077 | -61.21273 | 6293 ft | 257 kts | 73° |
| 2026-05-07 22:43 | 10.61069 | -61.19705 | 6825 ft | 277 kts | 39° |
| 2026-05-07 22:43 | 10.62825 | -61.18996 | 7862 ft | 276 kts | 6° |
| 2026-05-07 22:44 | 10.64751 | -61.19301 | 8669 ft | 289 kts | 339° |
| 2026-05-07 22:44 | 10.66434 | -61.20457 | 9547 ft | 295 kts | 321° |
| 2026-05-07 22:44 | 10.68112 | -61.21679 | 10341 ft | 301 kts | 330° |
| 2026-05-07 22:44 | 10.69962 | -61.22811 | 10777 ft | 320 kts | 331° |
| 2026-05-07 22:45 | 10.71923 | -61.24029 | 11110 ft | 341 kts | 331° |
| 2026-05-07 22:45 | 10.73997 | -61.25329 | 11469 ft | 358 kts | 330° |
| 2026-05-07 22:45 | 10.76143 | -61.26693 | 11993 ft | 368 kts | 330° |
| 2026-05-07 22:45 | 10.78277 | -61.28087 | 13026 ft | 358 kts | 329° |
| 2026-05-07 22:46 | 10.80304 | -61.29470 | 14196 ft | 350 kts | 329° |
| 2026-05-07 22:46 | 10.82387 | -61.30856 | 14468 ft | 366 kts | 330° |
| 2026-05-07 22:46 | 10.84576 | -61.32276 | 14741 ft | 379 kts | 329° |
| 2026-05-07 22:46 | 10.86776 | -61.33710 | 15300 ft | 381 kts | 328° |
| 2026-05-07 22:47 | 10.89007 | -61.35191 | 15840 ft | 386 kts | 328° |
| 2026-05-07 22:47 | 10.91267 | -61.36686 | 16410 ft | 388 kts | 327° |
| 2026-05-07 22:47 | 10.93532 | -61.38197 | 16930 ft | 391 kts | 327° |
| 2026-05-07 22:47 | 10.95811 | -61.39712 | 17537 ft | 392 kts | 326° |
| 2026-05-07 22:48 | 10.98104 | -61.41243 | 18005 ft | 396 kts | 326° |
| 2026-05-07 22:48 | 11.00422 | -61.42790 | 18423 ft | 401 kts | 326° |
| 2026-05-07 22:48 | 11.02760 | -61.44345 | 18889 ft | 402 kts | 325° |
| 2026-05-07 22:48 | 11.05109 | -61.45914 | 19289 ft | 405 kts | 325° |
| 2026-05-07 22:49 | 11.07475 | -61.47493 | 19692 ft | 409 kts | 325° |
| 2026-05-07 22:49 | 11.09864 | -61.49085 | 20091 ft | 412 kts | 324° |
| 2026-05-07 22:49 | 11.12264 | -61.50688 | 20507 ft | 414 kts | 324° |
| 2026-05-07 22:49 | 11.14684 | -61.52304 | 20896 ft | 417 kts | 324° |
| 2026-05-07 22:50 | 11.17114 | -61.53927 | 21294 ft | 419 kts | 324° |
| 2026-05-07 22:50 | 11.19564 | -61.55563 | 21683 ft | 422 kts | 324° |
| 2026-05-07 22:50 | 11.22026 | -61.57207 | 22066 ft | 425 kts | 323° |
| 2026-05-07 22:50 | 11.24505 | -61.58863 | 22444 ft | 427 kts | 323° |
| 2026-05-07 22:51 | 11.26154 | -61.59966 | 22689 ft | 429 kts | 323° |
| 2026-05-07 22:51 | 11.28657 | -61.61639 | 23064 ft | 431 kts | 323° |
| 2026-05-07 22:51 | 11.31172 | -61.63320 | 23439 ft | 434 kts | 323° |
| 2026-05-07 22:51 | 11.34527 | -61.65562 | 23850 ft | 437 kts | 323° |
| 2026-05-07 22:52 | 11.36248 | -61.66712 | 24062 ft | 438 kts | 323° |
| 2026-05-07 22:52 | 11.39628 | -61.68975 | 24471 ft | 440 kts | 323° |
| 2026-05-07 22:52 | 11.41363 | -61.70136 | 24674 ft | 442 kts | 323° |
| 2026-05-07 22:52 | 11.43942 | -61.71863 | 24977 ft | 444 kts | 323° |
| 2026-05-07 22:53 | 11.46496 | -61.73574 | 25276 ft | 446 kts | 323° |
| 2026-05-07 22:53 | 11.49092 | -61.75311 | 25566 ft | 448 kts | 323° |
| 2026-05-07 22:53 | 11.51701 | -61.77059 | 25869 ft | 449 kts | 322° |
| 2026-05-07 22:53 | 11.54321 | -61.78814 | 26161 ft | 451 kts | 322° |
| 2026-05-07 22:54 | 11.56949 | -61.80576 | 26451 ft | 453 kts | 322° |
| 2026-05-07 22:54 | 11.59587 | -61.82345 | 26739 ft | 455 kts | 322° |
| 2026-05-07 22:54 | 11.62240 | -61.84124 | 27020 ft | 457 kts | 322° |
| 2026-05-07 22:54 | 11.64904 | -61.85910 | 27314 ft | 459 kts | 322° |
| 2026-05-07 22:55 | 11.67574 | -61.87702 | 27609 ft | 460 kts | 322° |
| 2026-05-07 22:55 | 11.70257 | -61.89502 | 27885 ft | 462 kts | 322° |
| 2026-05-07 22:55 | 11.72952 | -61.91311 | 28154 ft | 464 kts | 322° |
| 2026-05-07 22:55 | 11.75654 | -61.93125 | 28422 ft | 466 kts | 322° |
| 2026-05-07 22:56 | 11.78370 | -61.94951 | 28684 ft | 468 kts | 322° |
| 2026-05-07 22:56 | 11.81092 | -61.96780 | 28950 ft | 470 kts | 322° |
| 2026-05-07 22:56 | 11.83829 | -61.98620 | 29206 ft | 472 kts | 322° |
| 2026-05-07 22:56 | 11.86578 | -62.00468 | 29457 ft | 474 kts | 322° |
| 2026-05-07 22:57 | 11.89331 | -62.02319 | 29714 ft | 475 kts | 322° |
| 2026-05-07 22:57 | 11.92102 | -62.04182 | 29965 ft | 477 kts | 322° |
| 2026-05-07 22:57 | 11.94870 | -62.06048 | 30256 ft | 477 kts | 322° |
| 2026-05-07 22:57 | 11.97633 | -62.07915 | 30560 ft | 476 kts | 322° |
| 2026-05-07 22:58 | 12.00396 | -62.09782 | 30835 ft | 476 kts | 322° |
| 2026-05-07 22:58 | 12.03163 | -62.11649 | 30986 ft | 477 kts | 322° |
| 2026-05-07 22:58 | 12.05922 | -62.13511 | 30978 ft | 475 kts | 322° |
| 2026-05-07 22:59 | 12.11427 | -62.17225 | 30984 ft | 474 kts | 322° |
| 2026-05-07 22:59 | 12.16930 | -62.20937 | 30981 ft | 474 kts | 322° |
| 2026-05-07 23:00 | 12.22433 | -62.24650 | 30974 ft | 474 kts | 321° |
| 2026-05-07 23:00 | 12.27941 | -62.28369 | 30985 ft | 474 kts | 322° |
| 2026-05-07 23:01 | 12.33436 | -62.32081 | 30993 ft | 473 kts | 322° |
| 2026-05-07 23:01 | 12.38890 | -62.35769 | 30982 ft | 473 kts | 322° |
| 2026-05-07 23:02 | 12.44377 | -62.39479 | 30985 ft | 473 kts | 322° |
| 2026-05-07 23:02 | 12.49870 | -62.43195 | 30989 ft | 473 kts | 322° |
| 2026-05-07 23:03 | 12.55359 | -62.46910 | 30989 ft | 473 kts | 322° |
| 2026-05-07 23:03 | 12.60850 | -62.50629 | 30987 ft | 473 kts | 322° |
| 2026-05-07 23:04 | 12.66343 | -62.54351 | 30992 ft | 473 kts | 322° |
| 2026-05-07 23:04 | 12.71825 | -62.58068 | 30990 ft | 472 kts | 323° |
| 2026-05-07 23:05 | 12.77306 | -62.61786 | 30984 ft | 473 kts | 323° |
| 2026-05-07 23:05 | 12.82784 | -62.65504 | 30989 ft | 472 kts | 323° |
| 2026-05-07 23:06 | 12.88229 | -62.69202 | 30991 ft | 472 kts | 323° |
| 2026-05-07 23:06 | 12.93747 | -62.72951 | 30996 ft | 473 kts | 323° |
| 2026-05-07 23:07 | 12.99189 | -62.76650 | 30990 ft | 473 kts | 323° |
| 2026-05-07 23:07 | 13.04665 | -62.80375 | 30995 ft | 472 kts | 323° |
| 2026-05-07 23:08 | 13.10148 | -62.84106 | 30994 ft | 472 kts | 323° |
| 2026-05-07 23:08 | 13.15623 | -62.87834 | 30987 ft | 472 kts | 323° |
| 2026-05-07 23:09 | 13.21096 | -62.91563 | 30996 ft | 472 kts | 323° |
| 2026-05-07 23:09 | 13.26570 | -62.95293 | 30992 ft | 472 kts | 323° |
| 2026-05-07 23:10 | 13.32043 | -62.99026 | 30994 ft | 472 kts | 323° |
| 2026-05-07 23:10 | 13.37520 | -63.02762 | 30988 ft | 472 kts | 323° |
| 2026-05-07 23:11 | 13.42987 | -63.06496 | 30990 ft | 472 kts | 323° |
| 2026-05-07 23:11 | 13.48459 | -63.10234 | 30995 ft | 472 kts | 323° |
| 2026-05-07 23:12 | 13.53931 | -63.13974 | 30999 ft | 472 kts | 324° |
| 2026-05-07 23:12 | 13.59394 | -63.17710 | 30997 ft | 471 kts | 324° |
| 2026-05-07 23:13 | 13.64854 | -63.21447 | 30998 ft | 471 kts | 324° |
| 2026-05-07 23:13 | 13.70311 | -63.25183 | 30992 ft | 471 kts | 324° |
| 2026-05-07 23:14 | 13.75765 | -63.28919 | 30992 ft | 470 kts | 324° |
| 2026-05-07 23:14 | 13.81176 | -63.32628 | 31008 ft | 470 kts | 324° |
| 2026-05-07 23:15 | 13.86619 | -63.36362 | 31007 ft | 470 kts | 324° |
| 2026-05-07 23:15 | 13.92068 | -63.40101 | 31007 ft | 470 kts | 324° |
| 2026-05-07 23:16 | 13.97515 | -63.43841 | 30996 ft | 470 kts | 324° |
| 2026-05-07 23:16 | 14.02949 | -63.47574 | 31004 ft | 469 kts | 324° |
| 2026-05-07 23:17 | 14.08382 | -63.51308 | 31008 ft | 469 kts | 325° |
| 2026-05-07 23:17 | 14.13796 | -63.55033 | 31001 ft | 468 kts | 324° |
| 2026-05-07 23:18 | 14.19215 | -63.58762 | 31001 ft | 468 kts | 324° |
| 2026-05-07 23:18 | 14.24623 | -63.62486 | 31006 ft | 468 kts | 324° |
| 2026-05-07 23:19 | 14.30010 | -63.66198 | 31007 ft | 468 kts | 324° |
| 2026-05-07 23:19 | 14.35423 | -63.69930 | 31011 ft | 468 kts | 324° |
| 2026-05-07 23:20 | 14.40835 | -63.73664 | 31009 ft | 468 kts | 324° |
| 2026-05-07 23:20 | 14.46230 | -63.77387 | 31003 ft | 465 kts | 325° |
| 2026-05-07 23:21 | 14.51605 | -63.81099 | 31008 ft | 464 kts | 325° |
| 2026-05-07 23:21 | 14.56974 | -63.84810 | 31010 ft | 465 kts | 325° |
| 2026-05-07 23:22 | 14.62345 | -63.88524 | 31010 ft | 464 kts | 325° |
| 2026-05-07 23:22 | 14.67678 | -63.92214 | 31012 ft | 465 kts | 325° |
| 2026-05-07 23:23 | 14.73046 | -63.95930 | 31009 ft | 464 kts | 325° |
| 2026-05-07 23:23 | 14.78418 | -63.99651 | 31019 ft | 465 kts | 325° |
| 2026-05-07 23:24 | 14.83784 | -64.03370 | 31015 ft | 463 kts | 325° |
| 2026-05-07 23:24 | 14.89141 | -64.07086 | 31013 ft | 464 kts | 326° |
| 2026-05-07 23:25 | 14.94485 | -64.10795 | 31015 ft | 461 kts | 326° |
| 2026-05-07 23:25 | 14.99567 | -64.14838 | 30992 ft | 463 kts | 310° |
| 2026-05-07 23:26 | 15.02951 | -64.20512 | 30997 ft | 466 kts | 300° |
| 2026-05-07 23:26 | 15.06066 | -64.26390 | 31017 ft | 466 kts | 299° |
| 2026-05-07 23:27 | 15.09696 | -64.35648 | 31029 ft | 466 kts | 283° |
| 2026-05-07 23:27 | 15.11207 | -64.42204 | 31019 ft | 470 kts | 285° |
| 2026-05-07 23:28 | 15.12779 | -64.48722 | 31013 ft | 469 kts | 286° |
| 2026-05-07 23:28 | 15.14364 | -64.55277 | 31019 ft | 470 kts | 286° |
| 2026-05-07 23:29 | 15.15948 | -64.61837 | 31028 ft | 470 kts | 285° |
| 2026-05-07 23:29 | 15.17531 | -64.68397 | 31015 ft | 470 kts | 286° |
| 2026-05-07 23:30 | 15.19117 | -64.74984 | 31017 ft | 472 kts | 286° |
| 2026-05-07 23:30 | 15.20703 | -64.81577 | 31018 ft | 472 kts | 286° |
| 2026-05-07 23:31 | 15.22286 | -64.88170 | 31017 ft | 472 kts | 286° |
| 2026-05-07 23:31 | 15.23868 | -64.94764 | 31019 ft | 472 kts | 286° |
| 2026-05-07 23:32 | 15.25449 | -65.01365 | 31018 ft | 473 kts | 287° |
| 2026-05-07 23:32 | 15.27019 | -65.07929 | 31017 ft | 473 kts | 287° |
| 2026-05-07 23:33 | 15.28599 | -65.14543 | 31015 ft | 473 kts | 287° |
| 2026-05-07 23:33 | 15.30178 | -65.21162 | 31018 ft | 473 kts | 287° |
| 2026-05-07 23:34 | 15.31754 | -65.27778 | 31018 ft | 473 kts | 287° |
| 2026-05-07 23:34 | 15.33328 | -65.34392 | 31013 ft | 472 kts | 287° |
| 2026-05-07 23:35 | 15.34898 | -65.41002 | 31025 ft | 473 kts | 287° |
| 2026-05-07 23:35 | 15.36466 | -65.47613 | 31021 ft | 473 kts | 287° |
| 2026-05-07 23:36 | 15.38033 | -65.54228 | 31013 ft | 472 kts | 287° |
| 2026-05-07 23:36 | 15.39588 | -65.60802 | 31019 ft | 472 kts | 287° |
| 2026-05-07 23:37 | 15.41160 | -65.67456 | 31019 ft | 472 kts | 288° |
| 2026-05-07 23:37 | 15.42706 | -65.74010 | 31012 ft | 472 kts | 288° |
| 2026-05-07 23:38 | 15.44261 | -65.80609 | 31021 ft | 471 kts | 288° |
| 2026-05-07 23:38 | 15.45816 | -65.87219 | 31020 ft | 471 kts | 288° |
| 2026-05-07 23:39 | 15.47368 | -65.93827 | 31008 ft | 472 kts | 288° |
| 2026-05-07 23:39 | 15.48920 | -66.00443 | 31020 ft | 472 kts | 288° |
| 2026-05-07 23:40 | 15.50206 | -66.05932 | 31017 ft | 472 kts | 288° |
| 2026-05-07 23:40 | 15.52013 | -66.13658 | 31019 ft | 472 kts | 288° |
| 2026-05-07 23:41 | 15.53558 | -66.20269 | 31020 ft | 472 kts | 288° |
| 2026-05-07 23:41 | 15.55100 | -66.26881 | 31011 ft | 472 kts | 288° |
| 2026-05-07 23:42 | 15.56384 | -66.32393 | 31014 ft | 473 kts | 288° |
| 2026-05-07 23:42 | 15.57927 | -66.39026 | 31014 ft | 473 kts | 288° |
| 2026-05-07 23:43 | 15.59466 | -66.45652 | 31013 ft | 473 kts | 288° |
| 2026-05-07 23:43 | 15.61006 | -66.52290 | 31019 ft | 473 kts | 288° |
| 2026-05-07 23:44 | 15.62543 | -66.58926 | 31006 ft | 474 kts | 288° |
| 2026-05-07 23:44 | 15.64084 | -66.65587 | 31018 ft | 475 kts | 288° |
| 2026-05-07 23:45 | 15.65625 | -66.72258 | 31018 ft | 475 kts | 288° |
| 2026-05-07 23:45 | 15.67163 | -66.78927 | 31022 ft | 475 kts | 288° |
| 2026-05-07 23:46 | 15.68698 | -66.85595 | 31016 ft | 475 kts | 288° |
| 2026-05-07 23:46 | 15.70233 | -66.92270 | 31011 ft | 477 kts | 288° |
| 2026-05-07 23:47 | 15.71773 | -66.98977 | 31017 ft | 478 kts | 288° |
| 2026-05-07 23:47 | 15.73312 | -67.05690 | 31017 ft | 478 kts | 287° |
| 2026-05-07 23:48 | 15.74848 | -67.12400 | 31019 ft | 478 kts | 287° |
| 2026-05-07 23:48 | 15.76374 | -67.19072 | 31019 ft | 478 kts | 287° |
| 2026-05-07 23:49 | 15.77909 | -67.25801 | 31014 ft | 480 kts | 287° |
| 2026-05-07 23:49 | 15.79447 | -67.32548 | 31017 ft | 481 kts | 287° |
| 2026-05-07 23:50 | 15.80960 | -67.39310 | 31015 ft | 483 kts | 283° |
| 2026-05-07 23:50 | 15.81135 | -67.42820 | 31009 ft | 492 kts | 268° |
| 2026-05-07 23:50 | 15.80431 | -67.46313 | 31025 ft | 498 kts | 253° |
| 2026-05-07 23:51 | 15.78892 | -67.49555 | 31039 ft | 504 kts | 238° |
| 2026-05-07 23:51 | 15.76680 | -67.52399 | 31041 ft | 509 kts | 226° |
| 2026-05-07 23:51 | 15.73898 | -67.54668 | 31022 ft | 511 kts | 211° |
| 2026-05-07 23:51 | 15.70765 | -67.56429 | 31053 ft | 514 kts | 208° |
| 2026-05-07 23:52 | 15.64435 | -67.59798 | 31040 ft | 514 kts | 207° |
| 2026-05-07 23:52 | 15.58037 | -67.63114 | 31040 ft | 514 kts | 207° |
| 2026-05-07 23:53 | 15.51631 | -67.66419 | 31042 ft | 514 kts | 207° |
| 2026-05-07 23:53 | 15.45232 | -67.69718 | 31051 ft | 513 kts | 207° |
| 2026-05-07 23:54 | 15.38835 | -67.73014 | 31049 ft | 513 kts | 207° |
| 2026-05-07 23:54 | 15.32441 | -67.76306 | 31047 ft | 513 kts | 207° |
| 2026-05-07 23:55 | 15.26045 | -67.79596 | 31041 ft | 513 kts | 207° |
| 2026-05-07 23:55 | 15.19644 | -67.82887 | 31040 ft | 513 kts | 207° |
| 2026-05-07 23:56 | 15.13252 | -67.86171 | 31036 ft | 513 kts | 207° |
| 2026-05-07 23:56 | 15.06862 | -67.89452 | 31034 ft | 513 kts | 207° |
| 2026-05-07 23:57 | 15.00469 | -67.92732 | 31025 ft | 513 kts | 207° |
| 2026-05-07 23:57 | 14.94078 | -67.96009 | 31029 ft | 513 kts | 207° |
| 2026-05-07 23:58 | 14.87685 | -67.99285 | 30998 ft | 513 kts | 208° |
| 2026-05-07 23:58 | 14.81342 | -68.02532 | 30994 ft | 512 kts | 208° |
| 2026-05-07 23:59 | 14.74959 | -68.05799 | 30993 ft | 512 kts | 208° |
| 2026-05-07 23:59 | 14.68570 | -68.09066 | 30991 ft | 512 kts | 208° |
| 2026-05-08 00:00 | 14.62182 | -68.12330 | 30992 ft | 512 kts | 208° |
| 2026-05-08 00:00 | 14.55797 | -68.15591 | 30992 ft | 512 kts | 208° |
| 2026-05-08 00:01 | 14.49417 | -68.18847 | 30993 ft | 511 kts | 208° |
| 2026-05-08 00:01 | 14.43040 | -68.22100 | 30984 ft | 512 kts | 208° |
| 2026-05-08 00:02 | 14.36657 | -68.25353 | 30985 ft | 512 kts | 208° |
| 2026-05-08 00:02 | 14.30276 | -68.28604 | 30984 ft | 512 kts | 208° |
| 2026-05-08 00:03 | 14.23894 | -68.31853 | 30985 ft | 512 kts | 208° |
| 2026-05-08 00:03 | 14.17555 | -68.35078 | 30979 ft | 511 kts | 208° |
| 2026-05-08 00:04 | 14.11141 | -68.38339 | 30982 ft | 511 kts | 208° |
| 2026-05-08 00:04 | 14.04809 | -68.41555 | 30981 ft | 511 kts | 208° |
| 2026-05-08 00:05 | 13.98429 | -68.44795 | 30978 ft | 511 kts | 208° |
| 2026-05-08 00:05 | 13.92053 | -68.48031 | 30976 ft | 511 kts | 208° |
| 2026-05-08 00:06 | 13.85683 | -68.51261 | 30974 ft | 509 kts | 208° |
| 2026-05-08 00:06 | 13.79336 | -68.54478 | 30940 ft | 501 kts | 208° |
| 2026-05-08 00:07 | 13.76243 | -68.56046 | 30460 ft | 494 kts | 208° |
| 2026-05-08 00:07 | 13.73125 | -68.57625 | 29073 ft | 506 kts | 207° |
| 2026-05-08 00:07 | 13.69922 | -68.59245 | 27607 ft | 520 kts | 207° |
| 2026-05-08 00:07 | 13.66667 | -68.60893 | 26692 ft | 520 kts | 207° |
| 2026-05-08 00:08 | 13.63437 | -68.62527 | 25998 ft | 515 kts | 206° |
| 2026-05-08 00:08 | 13.60227 | -68.64151 | 25216 ft | 513 kts | 206° |
| 2026-05-08 00:08 | 13.57035 | -68.65765 | 24466 ft | 510 kts | 206° |
| 2026-05-08 00:08 | 13.53858 | -68.67372 | 23757 ft | 508 kts | 206° |
| 2026-05-08 00:09 | 13.50706 | -68.68965 | 23120 ft | 501 kts | 206° |
| 2026-05-08 00:09 | 13.47593 | -68.70538 | 22405 ft | 496 kts | 206° |
| 2026-05-08 00:09 | 13.44514 | -68.72093 | 21802 ft | 489 kts | 205° |
| 2026-05-08 00:09 | 13.41472 | -68.73630 | 20940 ft | 488 kts | 206° |
| 2026-05-08 00:10 | 13.38430 | -68.75166 | 20295 ft | 484 kts | 205° |
| 2026-05-08 00:10 | 13.35474 | -68.76657 | 19745 ft | 474 kts | 205° |
| 2026-05-08 00:10 | 13.32552 | -68.78132 | 19036 ft | 463 kts | 205° |
| 2026-05-08 00:10 | 13.29677 | -68.79581 | 18236 ft | 457 kts | 205° |
| 2026-05-08 00:11 | 13.26836 | -68.81014 | 17236 ft | 453 kts | 205° |
| 2026-05-08 00:11 | 13.24022 | -68.82433 | 16422 ft | 446 kts | 205° |
| 2026-05-08 00:11 | 13.21264 | -68.83822 | 15768 ft | 437 kts | 205° |
| 2026-05-08 00:11 | 13.18568 | -68.85182 | 15132 ft | 428 kts | 206° |
| 2026-05-08 00:12 | 13.15921 | -68.86515 | 14503 ft | 421 kts | 205° |
| 2026-05-08 00:12 | 13.13283 | -68.87843 | 13913 ft | 423 kts | 205° |
| 2026-05-08 00:12 | 13.10634 | -68.89177 | 13217 ft | 424 kts | 204° |
| 2026-05-08 00:12 | 13.07986 | -68.90510 | 12576 ft | 423 kts | 204° |
| 2026-05-08 00:13 | 13.05355 | -68.91835 | 12051 ft | 419 kts | 204° |
| 2026-05-08 00:13 | 13.02754 | -68.93143 | 11607 ft | 413 kts | 204° |
| 2026-05-08 00:13 | 13.00218 | -68.94419 | 11461 ft | 399 kts | 205° |
| 2026-05-08 00:13 | 12.97772 | -68.95650 | 11324 ft | 386 kts | 205° |
| 2026-05-08 00:14 | 12.95393 | -68.96847 | 11138 ft | 375 kts | 204° |
| 2026-05-08 00:14 | 12.93079 | -68.98009 | 10955 ft | 365 kts | 204° |
| 2026-05-08 00:14 | 12.90828 | -68.99141 | 10768 ft | 356 kts | 204° |
| 2026-05-08 00:14 | 12.88629 | -69.00247 | 10595 ft | 347 kts | 202° |
| 2026-05-08 00:15 | 12.86490 | -69.01322 | 10433 ft | 338 kts | 203° |
| 2026-05-08 00:15 | 12.84405 | -69.02369 | 10254 ft | 329 kts | 202° |
| 2026-05-08 00:15 | 12.82402 | -69.03376 | 10118 ft | 321 kts | 202° |
| 2026-05-08 00:15 | 12.80431 | -69.04365 | 10052 ft | 309 kts | 203° |
| 2026-05-08 00:16 | 12.78539 | -69.05313 | 10019 ft | 296 kts | 203° |
| 2026-05-08 00:16 | 12.76711 | -69.06231 | 9983 ft | 290 kts | 201° |
| 2026-05-08 00:16 | 12.74896 | -69.07140 | 9965 ft | 290 kts | 202° |
| 2026-05-08 00:16 | 12.73080 | -69.08048 | 9957 ft | 290 kts | 204° |
| 2026-05-08 00:17 | 12.71268 | -69.08957 | 9950 ft | 290 kts | 204° |
| 2026-05-08 00:17 | 12.69459 | -69.09865 | 9919 ft | 290 kts | 201° |
| 2026-05-08 00:17 | 12.67615 | -69.10789 | 9295 ft | 302 kts | 202° |
| 2026-05-08 00:17 | 12.65683 | -69.11756 | 8500 ft | 314 kts | 203° |
| 2026-05-08 00:18 | 12.63704 | -69.12747 | 7750 ft | 320 kts | 203° |
| 2026-05-08 00:18 | 12.61698 | -69.13755 | 7185 ft | 319 kts | 203° |
| 2026-05-08 00:18 | 12.59762 | -69.14728 | 7102 ft | 300 kts | 201° |
| 2026-05-08 00:18 | 12.57940 | -69.15639 | 7005 ft | 284 kts | 203° |
| 2026-05-08 00:19 | 12.56186 | -69.16500 | 6810 ft | 276 kts | 198° |
| 2026-05-08 00:19 | 12.54344 | -69.16819 | 6575 ft | 267 kts | 174° |
| 2026-05-08 00:19 | 12.52490 | -69.16732 | 6421 ft | 268 kts | 174° |
| 2026-05-08 00:19 | 12.50627 | -69.16654 | 6178 ft | 268 kts | 174° |
| 2026-05-08 00:20 | 12.48795 | -69.16566 | 5951 ft | 266 kts | 172° |
| 2026-05-08 00:20 | 12.46928 | -69.16465 | 5690 ft | 266 kts | 174° |
| 2026-05-08 00:20 | 12.45106 | -69.16367 | 5496 ft | 265 kts | 172° |
| 2026-05-08 00:20 | 12.43261 | -69.16262 | 5264 ft | 258 kts | 174° |
| 2026-05-08 00:21 | 12.41529 | -69.16165 | 5060 ft | 248 kts | 173° |
| 2026-05-08 00:21 | 12.39840 | -69.16071 | 4854 ft | 238 kts | 173° |
| 2026-05-08 00:21 | 12.38217 | -69.15976 | 4661 ft | 231 kts | 170° |
| 2026-05-08 00:21 | 12.36618 | -69.15885 | 4489 ft | 229 kts | 170° |
| 2026-05-08 00:22 | 12.35027 | -69.15791 | 4295 ft | 229 kts | 170° |
| 2026-05-08 00:22 | 12.33444 | -69.15696 | 4099 ft | 227 kts | 171° |
| 2026-05-08 00:22 | 12.31869 | -69.15609 | 3900 ft | 226 kts | 170° |
| 2026-05-08 00:22 | 12.30306 | -69.15519 | 3713 ft | 225 kts | 170° |
| 2026-05-08 00:23 | 12.28740 | -69.15428 | 3576 ft | 226 kts | 172° |
| 2026-05-08 00:23 | 12.27180 | -69.15340 | 3407 ft | 221 kts | 171° |
| 2026-05-08 00:23 | 12.25678 | -69.15255 | 3290 ft | 212 kts | 172° |
| 2026-05-08 00:23 | 12.24246 | -69.15078 | 3063 ft | 201 kts | 154° |
| 2026-05-08 00:24 | 12.23204 | -69.14286 | 2837 ft | 177 kts | 121° |
| 2026-05-08 00:24 | 12.22751 | -69.13214 | 2713 ft | 152 kts | 104° |
| 2026-05-08 00:24 | 12.22466 | -69.12239 | 2628 ft | 139 kts | 105° |
| 2026-05-08 00:24 | 12.22183 | -69.11327 | 2566 ft | 131 kts | 104° |
| 2026-05-08 00:25 | 12.21952 | -69.10437 | 2523 ft | 128 kts | 101° |
| 2026-05-08 00:25 | 12.21756 | -69.09551 | 2571 ft | 128 kts | 100° |
| 2026-05-08 00:25 | 12.21567 | -69.08658 | 2496 ft | 129 kts | 101° |
| 2026-05-08 00:25 | 12.21381 | -69.07775 | 2232 ft | 125 kts | 101° |
| 2026-05-08 00:26 | 12.21200 | -69.06915 | 1975 ft | 123 kts | 99° |
| 2026-05-08 00:26 | 12.21022 | -69.06069 | 1815 ft | 121 kts | 99° |
| 2026-05-08 00:26 | 12.20848 | -69.05240 | 1644 ft | 116 kts | 102° |
| 2026-05-08 00:26 | 12.20665 | -69.04435 | 1402 ft | 118 kts | 101° |
| 2026-05-08 00:27 | 12.20462 | -69.03631 | 1327 ft | 120 kts | 99° |
| 2026-05-08 00:27 | 12.20305 | -69.02791 | 1183 ft | 121 kts | 98° |
| 2026-05-08 00:27 | 12.20171 | -69.01936 | 1016 ft | 124 kts | 102° |
| 2026-05-08 00:27 | 12.19977 | -69.01081 | 1009 ft | 125 kts | 103° |
| 2026-05-08 00:28 | 12.19751 | -69.00216 | 884 ft | 125 kts | 102° |
| 2026-05-08 00:28 | 12.19606 | -68.99313 | 589 ft | 134 kts | 99° |
| 2026-05-08 00:28 | 12.19403 | -68.98424 | 362 ft | 124 kts | 98° |
| 2026-05-08 00:28 | 12.19226 | -68.97572 | 216 ft | 126 kts | 98° |
| 2026-05-08 00:29 | 12.19033 | -68.96676 | 105 ft | 132 kts | 98° |
| 2026-05-08 00:29 | 12.18860 | -68.95825 | 44 ft | 103 kts | 101° |
| 2026-05-08 00:29 | 12.18752 | -68.95307 | 44 ft | 50 kts | 101° |
| 2026-05-08 00:29 | 12.18697 | -68.95064 | 45 ft | 36 kts | 102° |
| 2026-05-08 00:30 | 12.18634 | -68.94749 | 49 ft | 51 kts | 100° |
| 2026-05-08 00:30 | 12.18575 | -68.94500 | 46 ft | 22 kts | 123° |
| 2026-05-08 00:30 | 12.18465 | -68.94473 | 44 ft | 16 kts | 190° |
| 2026-05-08 00:30 | 12.18413 | -68.94563 | 47 ft | 18 kts | 281° |
| 2026-05-08 00:31 | 12.18449 | -68.94729 | 47 ft | 31 kts | 282° |
| 2026-05-08 00:31 | 12.18502 | -68.94980 | 46 ft | 39 kts | 282° |
| 2026-05-08 00:31 | 12.18559 | -68.95255 | 46 ft | 39 kts | 282° |
| 2026-05-08 00:31 | 12.18604 | -68.95468 | 45 ft | 23 kts | 282° |
| 2026-05-08 00:32 | 12.18603 | -68.95558 | 43 ft | 7 kts | 200° |
| 2026-05-08 00:32 | 12.18572 | -68.95566 | 45 ft | 6 kts | 192° |
| 2026-05-08 00:32 | 12.18536 | -68.95573 | 46 ft | 2 kts | 192° |
| 2026-05-08 00:32 | 12.18531 | -68.95574 | 46 ft | 0 kts | 192° |